sensor_id;sensor_type;location;lat;lon;timestamp;P1;durP1;ratioP1;P2;durP2;ratioP2
22040;SDS011;11184;52.444;13.578;2024-03-23T00:56:26;22.00;;;4.93;;
22040;SDS011;11184;52.444;13.578;2024-03-23T00:59:10;18.20;;;4.13;;
22040;SDS011;11184;52.444;13.578;2024-03-23T01:01:55;9.18;;;4.22;;
22040;SDS011;11184;52.444;13.578;2024-03-23T01:04:39;12.45;;;3.90;;
22040;SDS011;11184;52.444;13.578;2024-03-23T01:07:24;15.95;;;5.03;;
22040;SDS011;11184;52.444;13.578;2024-03-23T01:10:08;17.13;;;4.85;;
22040;SDS011;11184;52.444;13.578;2024-03-23T01:12:53;14.85;;;4.25;;
22040;SDS011;11184;52.444;13.578;2024-03-23T01:15:38;19.25;;;4.65;;
22040;SDS011;11184;52.444;13.578;2024-03-23T01:18:23;14.38;;;3.55;;
22040;SDS011;11184;52.444;13.578;2024-03-23T01:21:10;15.50;;;4.97;;
22040;SDS011;11184;52.444;13.578;2024-03-23T01:23:54;8.85;;;3.45;;
22040;SDS011;11184;52.444;13.578;2024-03-23T01:26:39;21.10;;;4.88;;
22040;SDS011;11184;52.444;13.578;2024-03-23T01:29:24;15.10;;;4.22;;
22040;SDS011;11184;52.444;13.578;2024-03-23T01:32:08;11.30;;;3.85;;
22040;SDS011;11184;52.444;13.578;2024-03-23T01:34:53;7.93;;;4.50;;
22040;SDS011;11184;52.444;13.578;2024-03-23T01:37:37;19.85;;;4.82;;
22040;SDS011;11184;52.444;13.578;2024-03-23T01:40:22;10.05;;;3.15;;
22040;SDS011;11184;52.444;13.578;2024-03-23T01:43:07;21.02;;;4.22;;
22040;SDS011;11184;52.444;13.578;2024-03-23T01:45:53;14.50;;;4.00;;
22040;SDS011;11184;52.444;13.578;2024-03-23T01:48:37;12.30;;;3.55;;
22040;SDS011;11184;52.444;13.578;2024-03-23T01:51:22;19.58;;;4.05;;
22040;SDS011;11184;52.444;13.578;2024-03-23T01:54:07;13.60;;;4.53;;
22040;SDS011;11184;52.444;13.578;2024-03-23T01:56:53;8.93;;;3.05;;
22040;SDS011;11184;52.444;13.578;2024-03-23T01:59:38;11.40;;;3.70;;
22040;SDS011;11184;52.444;13.578;2024-03-23T02:02:23;22.17;;;4.30;;
22040;SDS011;11184;52.444;13.578;2024-03-23T02:05:08;18.55;;;3.88;;
22040;SDS011;11184;52.444;13.578;2024-03-23T02:07:52;14.38;;;4.03;;
22040;SDS011;11184;52.444;13.578;2024-03-23T02:10:37;15.52;;;3.83;;
22040;SDS011;11184;52.444;13.578;2024-03-23T02:13:21;10.82;;;3.97;;
22040;SDS011;11184;52.444;13.578;2024-03-23T02:16:06;15.23;;;4.45;;
22040;SDS011;11184;52.444;13.578;2024-03-23T02:18:50;22.05;;;4.75;;
22040;SDS011;11184;52.444;13.578;2024-03-23T02:21:35;15.45;;;3.38;;
22040;SDS011;11184;52.444;13.578;2024-03-23T02:24:20;15.85;;;3.97;;
22040;SDS011;11184;52.444;13.578;2024-03-23T02:27:04;22.20;;;3.90;;
22040;SDS011;11184;52.444;13.578;2024-03-23T02:29:49;20.30;;;4.25;;
22040;SDS011;11184;52.444;13.578;2024-03-23T02:32:33;12.25;;;4.93;;
22040;SDS011;11184;52.444;13.578;2024-03-23T02:35:18;11.40;;;4.30;;
22040;SDS011;11184;52.444;13.578;2024-03-23T02:38:03;15.02;;;3.92;;
22040;SDS011;11184;52.444;13.578;2024-03-23T02:40:47;12.15;;;3.97;;
22040;SDS011;11184;52.444;13.578;2024-03-23T02:43:32;8.88;;;3.03;;
22040;SDS011;11184;52.444;13.578;2024-03-23T02:46:17;12.27;;;3.88;;
22040;SDS011;11184;52.444;13.578;2024-03-23T02:49:02;15.63;;;3.83;;
22040;SDS011;11184;52.444;13.578;2024-03-23T02:51:48;16.05;;;3.58;;
22040;SDS011;11184;52.444;13.578;2024-03-23T02:54:32;15.60;;;5.47;;
22040;SDS011;11184;52.444;13.578;2024-03-23T02:57:17;20.20;;;4.80;;
22040;SDS011;11184;52.444;13.578;2024-03-23T03:00:02;22.30;;;4.30;;
22040;SDS011;11184;52.444;13.578;2024-03-23T03:02:46;20.15;;;4.90;;
22040;SDS011;11184;52.444;13.578;2024-03-23T03:05:31;18.77;;;3.60;;
22040;SDS011;11184;52.444;13.578;2024-03-23T03:08:15;18.13;;;4.45;;
22040;SDS011;11184;52.444;13.578;2024-03-23T03:11:00;13.43;;;3.72;;
22040;SDS011;11184;52.444;13.578;2024-03-23T03:13:45;14.73;;;3.67;;
22040;SDS011;11184;52.444;13.578;2024-03-23T03:16:30;16.23;;;4.30;;
22040;SDS011;11184;52.444;13.578;2024-03-23T03:19:14;12.40;;;4.03;;
22040;SDS011;11184;52.444;13.578;2024-03-23T03:22:00;14.27;;;3.75;;
22040;SDS011;11184;52.444;13.578;2024-03-23T03:24:44;16.58;;;4.78;;
22040;SDS011;11184;52.444;13.578;2024-03-23T03:27:29;10.93;;;4.70;;
22040;SDS011;11184;52.444;13.578;2024-03-23T03:30:14;16.83;;;3.97;;
22040;SDS011;11184;52.444;13.578;2024-03-23T03:32:58;11.63;;;3.70;;
22040;SDS011;11184;52.444;13.578;2024-03-23T03:35:43;15.40;;;4.57;;
22040;SDS011;11184;52.444;13.578;2024-03-23T03:38:29;7.88;;;4.07;;
22040;SDS011;11184;52.444;13.578;2024-03-23T03:41:13;12.18;;;3.97;;
22040;SDS011;11184;52.444;13.578;2024-03-23T03:43:59;13.35;;;3.38;;
22040;SDS011;11184;52.444;13.578;2024-03-23T03:46:45;19.48;;;4.50;;
22040;SDS011;11184;52.444;13.578;2024-03-23T03:49:30;15.93;;;4.35;;
22040;SDS011;11184;52.444;13.578;2024-03-23T03:52:14;16.45;;;5.07;;
22040;SDS011;11184;52.444;13.578;2024-03-23T03:55:02;13.38;;;4.00;;
22040;SDS011;11184;52.444;13.578;2024-03-23T03:57:47;12.30;;;4.07;;
22040;SDS011;11184;52.444;13.578;2024-03-23T04:00:31;21.27;;;4.88;;
22040;SDS011;11184;52.444;13.578;2024-03-23T04:03:16;12.52;;;4.28;;
22040;SDS011;11184;52.444;13.578;2024-03-23T04:06:01;18.92;;;5.03;;
22040;SDS011;11184;52.444;13.578;2024-03-23T04:08:45;20.02;;;5.72;;
22040;SDS011;11184;52.444;13.578;2024-03-23T04:11:30;23.30;;;6.43;;
22040;SDS011;11184;52.444;13.578;2024-03-23T04:14:16;18.50;;;5.00;;
22040;SDS011;11184;52.444;13.578;2024-03-23T04:17:01;15.07;;;5.85;;
22040;SDS011;11184;52.444;13.578;2024-03-23T04:19:46;14.93;;;6.30;;
22040;SDS011;11184;52.444;13.578;2024-03-23T04:22:33;23.33;;;5.93;;
22040;SDS011;11184;52.444;13.578;2024-03-23T04:25:17;11.52;;;6.13;;
22040;SDS011;11184;52.444;13.578;2024-03-23T04:28:03;14.63;;;6.63;;
22040;SDS011;11184;52.444;13.578;2024-03-23T04:30:48;15.18;;;5.90;;
22040;SDS011;11184;52.444;13.578;2024-03-23T04:33:33;13.77;;;5.50;;
22040;SDS011;11184;52.444;13.578;2024-03-23T04:36:17;19.95;;;6.00;;
22040;SDS011;11184;52.444;13.578;2024-03-23T04:39:06;17.75;;;5.53;;
22040;SDS011;11184;52.444;13.578;2024-03-23T04:41:52;20.63;;;6.35;;
22040;SDS011;11184;52.444;13.578;2024-03-23T04:44:37;26.30;;;5.40;;
22040;SDS011;11184;52.444;13.578;2024-03-23T04:47:21;18.77;;;6.18;;
22040;SDS011;11184;52.444;13.578;2024-03-23T04:50:06;15.32;;;4.95;;
22040;SDS011;11184;52.444;13.578;2024-03-23T04:52:50;17.35;;;5.53;;
22040;SDS011;11184;52.444;13.578;2024-03-23T04:55:35;17.42;;;4.55;;
22040;SDS011;11184;52.444;13.578;2024-03-23T04:58:19;12.40;;;4.75;;
22040;SDS011;11184;52.444;13.578;2024-03-23T05:01:04;14.77;;;4.22;;
22040;SDS011;11184;52.444;13.578;2024-03-23T05:03:49;16.60;;;3.97;;
22040;SDS011;11184;52.444;13.578;2024-03-23T05:06:33;11.43;;;2.92;;
22040;SDS011;11184;52.444;13.578;2024-03-23T05:09:18;13.77;;;2.85;;
22040;SDS011;11184;52.444;13.578;2024-03-23T05:12:03;7.53;;;3.63;;
22040;SDS011;11184;52.444;13.578;2024-03-23T05:14:48;10.35;;;2.78;;
22040;SDS011;11184;52.444;13.578;2024-03-23T05:17:33;7.45;;;2.47;;
22040;SDS011;11184;52.444;13.578;2024-03-23T05:20:18;9.18;;;2.38;;
22040;SDS011;11184;52.444;13.578;2024-03-23T05:23:03;15.02;;;3.22;;
22040;SDS011;11184;52.444;13.578;2024-03-23T05:25:48;14.77;;;4.07;;
22040;SDS011;11184;52.444;13.578;2024-03-23T05:28:33;7.03;;;2.30;;
22040;SDS011;11184;52.444;13.578;2024-03-23T05:31:24;9.75;;;2.60;;
22040;SDS011;11184;52.444;13.578;2024-03-23T05:34:09;13.68;;;3.00;;
22040;SDS011;11184;52.444;13.578;2024-03-23T05:36:53;9.57;;;2.95;;
22040;SDS011;11184;52.444;13.578;2024-03-23T05:39:38;8.70;;;3.33;;
22040;SDS011;11184;52.444;13.578;2024-03-23T05:42:23;16.42;;;3.70;;
22040;SDS011;11184;52.444;13.578;2024-03-23T05:45:07;9.93;;;2.83;;
22040;SDS011;11184;52.444;13.578;2024-03-23T05:47:52;15.60;;;2.60;;
22040;SDS011;11184;52.444;13.578;2024-03-23T05:50:37;8.43;;;2.67;;
22040;SDS011;11184;52.444;13.578;2024-03-23T05:53:23;14.25;;;3.42;;
22040;SDS011;11184;52.444;13.578;2024-03-23T05:56:08;12.35;;;3.03;;
22040;SDS011;11184;52.444;13.578;2024-03-23T05:58:53;12.23;;;3.60;;
22040;SDS011;11184;52.444;13.578;2024-03-23T06:01:38;8.73;;;2.67;;
22040;SDS011;11184;52.444;13.578;2024-03-23T06:04:22;13.05;;;2.88;;
22040;SDS011;11184;52.444;13.578;2024-03-23T06:07:07;7.75;;;2.63;;
22040;SDS011;11184;52.444;13.578;2024-03-23T06:09:57;12.38;;;3.05;;
22040;SDS011;11184;52.444;13.578;2024-03-23T06:12:42;8.90;;;3.75;;
22040;SDS011;11184;52.444;13.578;2024-03-23T06:15:26;8.43;;;3.05;;
22040;SDS011;11184;52.444;13.578;2024-03-23T06:18:11;6.63;;;3.25;;
22040;SDS011;11184;52.444;13.578;2024-03-23T06:20:55;5.60;;;2.35;;
22040;SDS011;11184;52.444;13.578;2024-03-23T06:23:44;8.48;;;2.40;;
22040;SDS011;11184;52.444;13.578;2024-03-23T06:26:34;9.70;;;3.20;;
22040;SDS011;11184;52.444;13.578;2024-03-23T06:29:19;5.75;;;2.55;;
22040;SDS011;11184;52.444;13.578;2024-03-23T06:32:04;10.93;;;2.80;;
22040;SDS011;11184;52.444;13.578;2024-03-23T06:34:48;8.23;;;2.80;;
22040;SDS011;11184;52.444;13.578;2024-03-23T06:37:33;15.40;;;2.80;;
22040;SDS011;11184;52.444;13.578;2024-03-23T06:40:17;10.48;;;2.80;;
22040;SDS011;11184;52.444;13.578;2024-03-23T06:43:02;6.00;;;3.05;;
22040;SDS011;11184;52.444;13.578;2024-03-23T06:45:53;9.25;;;3.28;;
22040;SDS011;11184;52.444;13.578;2024-03-23T06:48:38;5.07;;;2.40;;
22040;SDS011;11184;52.444;13.578;2024-03-23T06:51:22;7.97;;;3.50;;
22040;SDS011;11184;52.444;13.578;2024-03-23T06:54:07;9.15;;;2.70;;
22040;SDS011;11184;52.444;13.578;2024-03-23T06:56:52;8.52;;;3.30;;
22040;SDS011;11184;52.444;13.578;2024-03-23T06:59:36;9.35;;;4.18;;
22040;SDS011;11184;52.444;13.578;2024-03-23T07:02:22;9.18;;;2.75;;
22040;SDS011;11184;52.444;13.578;2024-03-23T07:05:06;5.00;;;2.30;;
22040;SDS011;11184;52.444;13.578;2024-03-23T07:07:51;9.70;;;3.42;;
22040;SDS011;11184;52.444;13.578;2024-03-23T07:10:38;20.33;;;3.95;;
22040;SDS011;11184;52.444;13.578;2024-03-23T07:13:23;9.82;;;2.45;;
22040;SDS011;11184;52.444;13.578;2024-03-23T07:16:08;5.60;;;2.03;;
22040;SDS011;11184;52.444;13.578;2024-03-23T07:18:52;8.27;;;3.28;;
22040;SDS011;11184;52.444;13.578;2024-03-23T07:21:37;12.63;;;2.53;;
22040;SDS011;11184;52.444;13.578;2024-03-23T07:24:21;15.82;;;2.67;;
22040;SDS011;11184;52.444;13.578;2024-03-23T07:27:06;9.35;;;3.63;;
22040;SDS011;11184;52.444;13.578;2024-03-23T07:29:53;15.98;;;3.55;;
22040;SDS011;11184;52.444;13.578;2024-03-23T07:32:38;10.48;;;2.67;;
22040;SDS011;11184;52.444;13.578;2024-03-23T07:35:23;9.02;;;2.80;;
22040;SDS011;11184;52.444;13.578;2024-03-23T07:38:07;5.40;;;2.45;;
22040;SDS011;11184;52.444;13.578;2024-03-23T07:40:52;6.78;;;3.13;;
22040;SDS011;11184;52.444;13.578;2024-03-23T07:43:39;6.47;;;2.75;;
22040;SDS011;11184;52.444;13.578;2024-03-23T07:46:24;8.40;;;3.75;;
22040;SDS011;11184;52.444;13.578;2024-03-23T07:49:09;14.38;;;3.20;;
22040;SDS011;11184;52.444;13.578;2024-03-23T07:51:54;6.68;;;2.58;;
22040;SDS011;11184;52.444;13.578;2024-03-23T07:54:38;7.28;;;2.35;;
22040;SDS011;11184;52.444;13.578;2024-03-23T07:57:23;7.35;;;2.78;;
22040;SDS011;11184;52.444;13.578;2024-03-23T08:00:07;7.07;;;3.88;;
22040;SDS011;11184;52.444;13.578;2024-03-23T08:02:52;11.70;;;3.47;;
22040;SDS011;11184;52.444;13.578;2024-03-23T08:05:37;9.73;;;3.67;;
22040;SDS011;11184;52.444;13.578;2024-03-23T08:08:22;17.02;;;3.75;;
22040;SDS011;11184;52.444;13.578;2024-03-23T08:11:06;10.57;;;3.72;;
22040;SDS011;11184;52.444;13.578;2024-03-23T08:13:52;6.32;;;2.70;;
22040;SDS011;11184;52.444;13.578;2024-03-23T08:16:36;8.52;;;2.88;;
22040;SDS011;11184;52.444;13.578;2024-03-23T08:19:21;7.60;;;2.63;;
22040;SDS011;11184;52.444;13.578;2024-03-23T08:22:06;7.30;;;3.17;;
22040;SDS011;11184;52.444;13.578;2024-03-23T08:24:50;8.32;;;3.28;;
22040;SDS011;11184;52.444;13.578;2024-03-23T08:27:35;11.68;;;3.75;;
22040;SDS011;11184;52.444;13.578;2024-03-23T08:30:19;8.82;;;3.65;;
22040;SDS011;11184;52.444;13.578;2024-03-23T08:33:04;12.52;;;4.22;;
22040;SDS011;11184;52.444;13.578;2024-03-23T08:35:55;9.73;;;3.00;;
22040;SDS011;11184;52.444;13.578;2024-03-23T08:38:40;8.25;;;3.72;;
22040;SDS011;11184;52.444;13.578;2024-03-23T08:41:25;7.65;;;2.90;;
22040;SDS011;11184;52.444;13.578;2024-03-23T08:44:09;9.35;;;2.42;;
22040;SDS011;11184;52.444;13.578;2024-03-23T08:46:57;10.02;;;3.13;;
22040;SDS011;11184;52.444;13.578;2024-03-23T08:49:42;6.70;;;3.10;;
22040;SDS011;11184;52.444;13.578;2024-03-23T08:52:28;6.85;;;2.55;;
22040;SDS011;11184;52.444;13.578;2024-03-23T08:55:13;11.02;;;2.83;;
22040;SDS011;11184;52.444;13.578;2024-03-23T08:57:58;6.63;;;3.05;;
22040;SDS011;11184;52.444;13.578;2024-03-23T09:00:43;9.40;;;2.65;;
22040;SDS011;11184;52.444;13.578;2024-03-23T09:03:28;8.68;;;2.88;;
22040;SDS011;11184;52.444;13.578;2024-03-23T09:06:14;12.43;;;4.03;;
22040;SDS011;11184;52.444;13.578;2024-03-23T09:08:59;12.48;;;4.32;;
22040;SDS011;11184;52.444;13.578;2024-03-23T09:11:43;6.18;;;2.58;;
22040;SDS011;11184;52.444;13.578;2024-03-23T09:14:28;6.43;;;2.50;;
22040;SDS011;11184;52.444;13.578;2024-03-23T09:17:13;9.57;;;4.72;;
22040;SDS011;11184;52.444;13.578;2024-03-23T09:19:58;7.85;;;3.47;;
22040;SDS011;11184;52.444;13.578;2024-03-23T09:22:42;5.78;;;2.83;;
22040;SDS011;11184;52.444;13.578;2024-03-23T09:25:27;4.82;;;2.42;;
22040;SDS011;11184;52.444;13.578;2024-03-23T09:28:11;5.95;;;2.85;;
22040;SDS011;11184;52.444;13.578;2024-03-23T09:31:02;7.25;;;2.47;;
22040;SDS011;11184;52.444;13.578;2024-03-23T09:33:46;6.68;;;2.45;;
22040;SDS011;11184;52.444;13.578;2024-03-23T09:36:31;14.93;;;3.72;;
22040;SDS011;11184;52.444;13.578;2024-03-23T09:39:15;13.05;;;3.15;;
22040;SDS011;11184;52.444;13.578;2024-03-23T09:42:00;11.10;;;3.33;;
22040;SDS011;11184;52.444;13.578;2024-03-23T09:44:45;8.35;;;2.45;;
22040;SDS011;11184;52.444;13.578;2024-03-23T09:47:30;11.68;;;2.80;;
22040;SDS011;11184;52.444;13.578;2024-03-23T09:50:14;6.55;;;2.88;;
22040;SDS011;11184;52.444;13.578;2024-03-23T09:52:59;8.35;;;3.60;;
22040;SDS011;11184;52.444;13.578;2024-03-23T09:55:44;10.32;;;2.72;;
22040;SDS011;11184;52.444;13.578;2024-03-23T09:58:29;17.38;;;2.63;;
22040;SDS011;11184;52.444;13.578;2024-03-23T10:01:15;6.10;;;1.90;;
22040;SDS011;11184;52.444;13.578;2024-03-23T10:04:00;7.72;;;3.25;;
22040;SDS011;11184;52.444;13.578;2024-03-23T10:06:45;6.72;;;2.20;;
22040;SDS011;11184;52.444;13.578;2024-03-23T10:09:31;5.47;;;2.50;;
22040;SDS011;11184;52.444;13.578;2024-03-23T10:12:16;11.00;;;3.70;;
22040;SDS011;11184;52.444;13.578;2024-03-23T10:15:00;7.18;;;2.78;;
22040;SDS011;11184;52.444;13.578;2024-03-23T10:17:45;7.65;;;2.47;;
22040;SDS011;11184;52.444;13.578;2024-03-23T10:20:30;9.50;;;3.22;;
22040;SDS011;11184;52.444;13.578;2024-03-23T10:23:17;14.50;;;3.47;;
22040;SDS011;11184;52.444;13.578;2024-03-23T10:26:12;12.75;;;3.70;;
22040;SDS011;11184;52.444;13.578;2024-03-23T10:29:00;9.85;;;3.78;;
22040;SDS011;11184;52.444;13.578;2024-03-23T10:31:45;9.90;;;3.17;;
22040;SDS011;11184;52.444;13.578;2024-03-23T10:34:31;14.05;;;3.70;;
22040;SDS011;11184;52.444;13.578;2024-03-23T10:37:16;8.93;;;2.65;;
22040;SDS011;11184;52.444;13.578;2024-03-23T10:40:02;13.13;;;2.95;;
22040;SDS011;11184;52.444;13.578;2024-03-23T10:42:48;4.85;;;2.78;;
22040;SDS011;11184;52.444;13.578;2024-03-23T10:45:32;7.97;;;2.70;;
22040;SDS011;11184;52.444;13.578;2024-03-23T10:48:17;13.32;;;3.08;;
22040;SDS011;11184;52.444;13.578;2024-03-23T10:51:02;10.70;;;1.92;;
22040;SDS011;11184;52.444;13.578;2024-03-23T10:53:47;15.73;;;3.45;;
22040;SDS011;11184;52.444;13.578;2024-03-23T10:56:32;15.40;;;4.88;;
22040;SDS011;11184;52.444;13.578;2024-03-23T10:59:19;10.18;;;3.75;;
22040;SDS011;11184;52.444;13.578;2024-03-23T11:02:05;10.98;;;4.22;;
22040;SDS011;11184;52.444;13.578;2024-03-23T11:04:52;13.05;;;3.85;;
22040;SDS011;11184;52.444;13.578;2024-03-23T11:07:36;8.07;;;4.38;;
22040;SDS011;11184;52.444;13.578;2024-03-23T11:10:28;13.63;;;3.33;;
22040;SDS011;11184;52.444;13.578;2024-03-23T11:13:23;9.15;;;4.28;;
22040;SDS011;11184;52.444;13.578;2024-03-23T11:16:14;16.88;;;5.15;;
22040;SDS011;11184;52.444;13.578;2024-03-23T11:22:04;17.92;;;4.95;;
22040;SDS011;11184;52.444;13.578;2024-03-23T11:24:50;13.93;;;4.85;;
22040;SDS011;11184;52.444;13.578;2024-03-23T11:27:35;15.60;;;4.35;;
22040;SDS011;11184;52.444;13.578;2024-03-23T11:33:07;23.13;;;3.83;;
22040;SDS011;11184;52.444;13.578;2024-03-23T11:35:52;17.90;;;5.15;;
22040;SDS011;11184;52.444;13.578;2024-03-23T11:38:37;9.05;;;4.03;;
22040;SDS011;11184;52.444;13.578;2024-03-23T11:41:21;14.60;;;6.47;;
22040;SDS011;11184;52.444;13.578;2024-03-23T11:44:49;19.20;;;5.55;;
22040;SDS011;11184;52.444;13.578;2024-03-23T11:47:14;14.02;;;6.32;;
22040;SDS011;11184;52.444;13.578;2024-03-23T11:50:00;17.63;;;6.10;;
22040;SDS011;11184;52.444;13.578;2024-03-23T11:52:45;23.52;;;4.18;;
22040;SDS011;11184;52.444;13.578;2024-03-23T11:55:29;13.70;;;4.13;;
22040;SDS011;11184;52.444;13.578;2024-03-23T11:58:14;20.52;;;5.53;;
22040;SDS011;11184;52.444;13.578;2024-03-23T12:01:00;13.60;;;5.35;;
22040;SDS011;11184;52.444;13.578;2024-03-23T12:03:49;12.00;;;5.80;;
22040;SDS011;11184;52.444;13.578;2024-03-23T12:06:33;17.20;;;6.18;;
22040;SDS011;11184;52.444;13.578;2024-03-23T12:09:19;15.93;;;6.68;;
22040;SDS011;11184;52.444;13.578;2024-03-23T12:12:07;13.98;;;4.40;;
22040;SDS011;11184;52.444;13.578;2024-03-23T12:15:03;17.50;;;5.15;;
22040;SDS011;11184;52.444;13.578;2024-03-23T12:17:48;16.75;;;5.20;;
22040;SDS011;11184;52.444;13.578;2024-03-23T12:20:33;23.33;;;5.93;;
22040;SDS011;11184;52.444;13.578;2024-03-23T12:23:18;16.92;;;6.10;;
22040;SDS011;11184;52.444;13.578;2024-03-23T12:26:04;19.27;;;7.38;;
22040;SDS011;11184;52.444;13.578;2024-03-23T12:28:49;15.43;;;6.00;;
22040;SDS011;11184;52.444;13.578;2024-03-23T12:31:34;17.83;;;5.60;;
22040;SDS011;11184;52.444;13.578;2024-03-23T12:34:19;13.25;;;4.32;;
22040;SDS011;11184;52.444;13.578;2024-03-23T12:37:03;16.10;;;4.55;;
22040;SDS011;11184;52.444;13.578;2024-03-23T12:39:49;10.35;;;3.97;;
22040;SDS011;11184;52.444;13.578;2024-03-23T12:42:34;6.50;;;3.20;;
22040;SDS011;11184;52.444;13.578;2024-03-23T12:45:19;10.10;;;2.90;;
22040;SDS011;11184;52.444;13.578;2024-03-23T12:48:03;10.77;;;5.07;;
22040;SDS011;11184;52.444;13.578;2024-03-23T12:50:48;7.50;;;3.25;;
22040;SDS011;11184;52.444;13.578;2024-03-23T12:53:32;9.93;;;3.08;;
22040;SDS011;11184;52.444;13.578;2024-03-23T12:56:17;14.10;;;4.45;;
22040;SDS011;11184;52.444;13.578;2024-03-23T12:59:02;11.80;;;2.75;;
22040;SDS011;11184;52.444;13.578;2024-03-23T13:01:47;13.63;;;3.08;;
22040;SDS011;11184;52.444;13.578;2024-03-23T13:04:31;9.98;;;4.47;;
22040;SDS011;11184;52.444;13.578;2024-03-23T13:07:16;15.93;;;3.22;;
22040;SDS011;11184;52.444;13.578;2024-03-23T13:10:01;10.15;;;3.50;;
22040;SDS011;11184;52.444;13.578;2024-03-23T13:12:46;16.77;;;4.43;;
22040;SDS011;11184;52.444;13.578;2024-03-23T13:15:30;10.80;;;3.78;;
22040;SDS011;11184;52.444;13.578;2024-03-23T13:18:15;14.90;;;4.32;;
22040;SDS011;11184;52.444;13.578;2024-03-23T13:21:00;8.40;;;4.10;;
22040;SDS011;11184;52.444;13.578;2024-03-23T13:23:48;9.63;;;3.45;;
22040;SDS011;11184;52.444;13.578;2024-03-23T13:26:34;7.25;;;3.55;;
22040;SDS011;11184;52.444;13.578;2024-03-23T13:29:19;8.18;;;3.38;;
22040;SDS011;11184;52.444;13.578;2024-03-23T13:32:03;24.33;;;5.28;;
22040;SDS011;11184;52.444;13.578;2024-03-23T13:34:48;9.57;;;2.58;;
22040;SDS011;11184;52.444;13.578;2024-03-23T13:37:34;8.88;;;2.88;;
22040;SDS011;11184;52.444;13.578;2024-03-23T13:40:18;9.45;;;2.67;;
22040;SDS011;11184;52.444;13.578;2024-03-23T13:43:04;12.60;;;3.08;;
22040;SDS011;11184;52.444;13.578;2024-03-23T13:45:49;7.47;;;3.63;;
22040;SDS011;11184;52.444;13.578;2024-03-23T13:48:34;13.05;;;3.47;;
22040;SDS011;11184;52.444;13.578;2024-03-23T13:51:23;9.23;;;3.05;;
22040;SDS011;11184;52.444;13.578;2024-03-23T13:54:08;7.03;;;2.88;;
22040;SDS011;11184;52.444;13.578;2024-03-23T13:56:55;11.27;;;3.63;;
22040;SDS011;11184;52.444;13.578;2024-03-23T13:59:39;6.68;;;3.17;;
22040;SDS011;11184;52.444;13.578;2024-03-23T14:02:27;10.43;;;3.95;;
22040;SDS011;11184;52.444;13.578;2024-03-23T14:05:12;11.32;;;4.63;;
22040;SDS011;11184;52.444;13.578;2024-03-23T14:07:56;15.35;;;5.03;;
22040;SDS011;11184;52.444;13.578;2024-03-23T14:10:41;7.88;;;4.15;;
22040;SDS011;11184;52.444;13.578;2024-03-23T14:13:27;13.25;;;5.05;;
22040;SDS011;11184;52.444;13.578;2024-03-23T14:16:12;11.27;;;5.47;;
22040;SDS011;11184;52.444;13.578;2024-03-23T14:18:57;8.93;;;5.05;;
22040;SDS011;11184;52.444;13.578;2024-03-23T14:21:42;8.30;;;4.50;;
22040;SDS011;11184;52.444;13.578;2024-03-23T14:24:26;11.48;;;3.85;;
22040;SDS011;11184;52.444;13.578;2024-03-23T14:27:11;15.95;;;4.80;;
22040;SDS011;11184;52.444;13.578;2024-03-23T14:29:55;12.70;;;4.95;;
22040;SDS011;11184;52.444;13.578;2024-03-23T14:32:40;13.90;;;4.43;;
22040;SDS011;11184;52.444;13.578;2024-03-23T14:35:24;7.57;;;3.78;;
22040;SDS011;11184;52.444;13.578;2024-03-23T14:38:10;9.77;;;4.85;;
22040;SDS011;11184;52.444;13.578;2024-03-23T14:40:58;15.10;;;3.85;;
22040;SDS011;11184;52.444;13.578;2024-03-23T14:43:43;10.48;;;3.78;;
22040;SDS011;11184;52.444;13.578;2024-03-23T14:46:29;15.60;;;4.50;;
22040;SDS011;11184;52.444;13.578;2024-03-23T14:49:14;7.70;;;3.30;;
22040;SDS011;11184;52.444;13.578;2024-03-23T14:52:00;10.93;;;3.22;;
22040;SDS011;11184;52.444;13.578;2024-03-23T14:54:45;7.05;;;4.18;;
22040;SDS011;11184;52.444;13.578;2024-03-23T14:57:30;12.23;;;4.35;;
22040;SDS011;11184;52.444;13.578;2024-03-23T15:00:15;17.92;;;3.33;;
22040;SDS011;11184;52.444;13.578;2024-03-23T15:03:02;10.18;;;3.97;;
22040;SDS011;11184;52.444;13.578;2024-03-23T15:05:53;11.75;;;4.55;;
22040;SDS011;11184;52.444;13.578;2024-03-23T15:08:38;6.35;;;3.85;;
22040;SDS011;11184;52.444;13.578;2024-03-23T15:11:24;14.50;;;5.45;;
22040;SDS011;11184;52.444;13.578;2024-03-23T15:14:08;12.85;;;5.75;;
22040;SDS011;11184;52.444;13.578;2024-03-23T15:16:54;6.53;;;4.60;;
22040;SDS011;11184;52.444;13.578;2024-03-23T15:19:38;6.05;;;4.30;;
22040;SDS011;11184;52.444;13.578;2024-03-23T15:22:23;5.78;;;3.20;;
22040;SDS011;11184;52.444;13.578;2024-03-23T15:25:08;5.25;;;3.83;;
22040;SDS011;11184;52.444;13.578;2024-03-23T15:27:53;7.45;;;4.90;;
22040;SDS011;11184;52.444;13.578;2024-03-23T15:30:38;8.55;;;4.72;;
22040;SDS011;11184;52.444;13.578;2024-03-23T15:33:24;5.22;;;4.18;;
22040;SDS011;11184;52.444;13.578;2024-03-23T15:36:08;9.70;;;4.43;;
22040;SDS011;11184;52.444;13.578;2024-03-23T15:38:53;11.85;;;5.90;;
22040;SDS011;11184;52.444;13.578;2024-03-23T15:41:39;8.70;;;4.00;;
22040;SDS011;11184;52.444;13.578;2024-03-23T15:44:23;5.95;;;3.92;;
22040;SDS011;11184;52.444;13.578;2024-03-23T15:47:08;7.13;;;3.78;;
22040;SDS011;11184;52.444;13.578;2024-03-23T15:49:53;10.63;;;4.38;;
22040;SDS011;11184;52.444;13.578;2024-03-23T15:52:39;5.80;;;3.75;;
22040;SDS011;11184;52.444;13.578;2024-03-23T15:55:24;5.55;;;2.90;;
22040;SDS011;11184;52.444;13.578;2024-03-23T15:58:09;4.70;;;4.13;;
22040;SDS011;11184;52.444;13.578;2024-03-23T16:03:47;8.82;;;1.85;;
22040;SDS011;11184;52.444;13.578;2024-03-23T16:06:32;6.25;;;2.55;;
22040;SDS011;11184;52.444;13.578;2024-03-23T16:09:17;8.38;;;3.30;;
22040;SDS011;11184;52.444;13.578;2024-03-23T16:12:02;4.88;;;1.88;;
22040;SDS011;11184;52.444;13.578;2024-03-23T16:14:47;7.82;;;2.28;;
22040;SDS011;11184;52.444;13.578;2024-03-23T16:17:32;6.45;;;2.45;;
22040;SDS011;11184;52.444;13.578;2024-03-23T16:20:19;6.30;;;2.42;;
22040;SDS011;11184;52.444;13.578;2024-03-23T16:23:05;5.57;;;3.13;;
22040;SDS011;11184;52.444;13.578;2024-03-23T16:25:50;10.93;;;2.40;;
22040;SDS011;11184;52.444;13.578;2024-03-23T16:28:43;7.80;;;2.70;;
22040;SDS011;11184;52.444;13.578;2024-03-23T16:31:29;4.70;;;2.55;;
22040;SDS011;11184;52.444;13.578;2024-03-23T16:34:14;3.90;;;2.25;;
22040;SDS011;11184;52.444;13.578;2024-03-23T16:36:58;6.47;;;2.88;;
22040;SDS011;11184;52.444;13.578;2024-03-23T16:39:43;5.88;;;2.35;;
22040;SDS011;11184;52.444;13.578;2024-03-23T16:42:28;6.20;;;2.22;;
22040;SDS011;11184;52.444;13.578;2024-03-23T16:45:13;7.22;;;2.47;;
22040;SDS011;11184;52.444;13.578;2024-03-23T16:47:57;8.18;;;2.85;;
22040;SDS011;11184;52.444;13.578;2024-03-23T16:50:42;5.82;;;3.08;;
22040;SDS011;11184;52.444;13.578;2024-03-23T16:53:27;7.15;;;2.45;;
22040;SDS011;11184;52.444;13.578;2024-03-23T16:56:14;6.15;;;2.45;;
22040;SDS011;11184;52.444;13.578;2024-03-23T16:58:59;5.68;;;2.63;;
22040;SDS011;11184;52.444;13.578;2024-03-23T17:01:43;7.40;;;2.97;;
22040;SDS011;11184;52.444;13.578;2024-03-23T17:04:28;5.50;;;2.13;;
22040;SDS011;11184;52.444;13.578;2024-03-23T17:07:13;3.08;;;2.03;;
22040;SDS011;11184;52.444;13.578;2024-03-23T17:09:58;5.07;;;2.67;;
22040;SDS011;11184;52.444;13.578;2024-03-23T17:12:43;8.73;;;2.72;;
22040;SDS011;11184;52.444;13.578;2024-03-23T17:15:28;9.48;;;3.42;;
22040;SDS011;11184;52.444;13.578;2024-03-23T17:18:13;4.63;;;3.50;;